sensor_id;sensor_type;location;lat;lon;timestamp;P1;durP1;ratioP1;P2;durP2;ratioP2
10150;SDS011;5116;52.318;4.644;2023-03-17T00:01:49;1.67;;;1.57;;
10150;SDS011;5116;52.318;4.644;2023-03-17T00:04:20;2.57;;;1.70;;
10150;SDS011;5116;52.318;4.644;2023-03-17T00:06:49;1.83;;;1.67;;
10150;SDS011;5116;52.318;4.644;2023-03-17T00:09:17;1.80;;;1.70;;
10150;SDS011;5116;52.318;4.644;2023-03-17T00:11:45;1.73;;;1.60;;
10150;SDS011;5116;52.318;4.644;2023-03-17T00:14:13;2.30;;;1.70;;
10150;SDS011;5116;52.318;4.644;2023-03-17T00:16:41;1.60;;;1.50;;
10150;SDS011;5116;52.318;4.644;2023-03-17T00:19:30;1.87;;;1.50;;
10150;SDS011;5116;52.318;4.644;2023-03-17T00:21:58;1.80;;;1.70;;
10150;SDS011;5116;52.318;4.644;2023-03-17T00:24:26;3.43;;;2.00;;
10150;SDS011;5116;52.318;4.644;2023-03-17T00:26:54;2.03;;;1.57;;
10150;SDS011;5116;52.318;4.644;2023-03-17T00:29:21;1.77;;;1.67;;
10150;SDS011;5116;52.318;4.644;2023-03-17T00:31:49;1.70;;;1.60;;
10150;SDS011;5116;52.318;4.644;2023-03-17T00:34:20;2.37;;;1.70;;
10150;SDS011;5116;52.318;4.644;2023-03-17T00:36:48;1.80;;;1.70;;
10150;SDS011;5116;52.318;4.644;2023-03-17T00:39:16;1.60;;;1.50;;
10150;SDS011;5116;52.318;4.644;2023-03-17T00:41:44;2.10;;;1.90;;
10150;SDS011;5116;52.318;4.644;2023-03-17T00:44:11;2.63;;;2.30;;
10150;SDS011;5116;52.318;4.644;2023-03-17T00:46:38;1.83;;;1.73;;
10150;SDS011;5116;52.318;4.644;2023-03-17T00:49:17;3.90;;;1.97;;
10150;SDS011;5116;52.318;4.644;2023-03-17T00:51:45;2.33;;;1.97;;
10150;SDS011;5116;52.318;4.644;2023-03-17T00:54:13;2.43;;;1.90;;
10150;SDS011;5116;52.318;4.644;2023-03-17T00:56:41;1.87;;;1.77;;
10150;SDS011;5116;52.318;4.644;2023-03-17T00:59:20;2.30;;;1.80;;
10150;SDS011;5116;52.318;4.644;2023-03-17T01:01:50;2.63;;;1.87;;
10150;SDS011;5116;52.318;4.644;2023-03-17T01:04:19;2.13;;;1.90;;
10150;SDS011;5116;52.318;4.644;2023-03-17T01:06:47;2.40;;;1.87;;
10150;SDS011;5116;52.318;4.644;2023-03-17T01:09:17;2.63;;;1.97;;
10150;SDS011;5116;52.318;4.644;2023-03-17T01:11:45;2.60;;;1.90;;
10150;SDS011;5116;52.318;4.644;2023-03-17T01:14:14;1.80;;;1.70;;
10150;SDS011;5116;52.318;4.644;2023-03-17T01:16:42;1.67;;;1.57;;
10150;SDS011;5116;52.318;4.644;2023-03-17T01:19:11;2.33;;;2.10;;
10150;SDS011;5116;52.318;4.644;2023-03-17T01:21:38;1.80;;;1.70;;
10150;SDS011;5116;52.318;4.644;2023-03-17T01:24:06;1.83;;;1.67;;
10150;SDS011;5116;52.318;4.644;2023-03-17T01:26:35;1.70;;;1.60;;
10150;SDS011;5116;52.318;4.644;2023-03-17T01:29:03;2.10;;;1.77;;
10150;SDS011;5116;52.318;4.644;2023-03-17T01:31:33;1.77;;;1.67;;
10150;SDS011;5116;52.318;4.644;2023-03-17T01:34:00;1.77;;;1.60;;
10150;SDS011;5116;52.318;4.644;2023-03-17T01:36:29;2.27;;;1.90;;
10150;SDS011;5116;52.318;4.644;2023-03-17T01:38:56;3.40;;;2.13;;
10150;SDS011;5116;52.318;4.644;2023-03-17T01:41:24;2.07;;;1.87;;
10150;SDS011;5116;52.318;4.644;2023-03-17T01:43:52;1.90;;;1.80;;
10150;SDS011;5116;52.318;4.644;2023-03-17T01:48:50;3.23;;;1.83;;
10150;SDS011;5116;52.318;4.644;2023-03-17T01:51:24;1.80;;;1.70;;
10150;SDS011;5116;52.318;4.644;2023-03-17T01:53:53;2.37;;;1.60;;
10150;SDS011;5116;52.318;4.644;2023-03-17T01:56:21;1.97;;;1.87;;
10150;SDS011;5116;52.318;4.644;2023-03-17T01:58:49;3.57;;;1.77;;
10150;SDS011;5116;52.318;4.644;2023-03-17T02:01:19;1.97;;;1.70;;
10150;SDS011;5116;52.318;4.644;2023-03-17T02:03:50;2.43;;;1.90;;
10150;SDS011;5116;52.318;4.644;2023-03-17T02:06:17;2.97;;;2.00;;
10150;SDS011;5116;52.318;4.644;2023-03-17T02:08:45;2.53;;;2.03;;
10150;SDS011;5116;52.318;4.644;2023-03-17T02:11:12;2.13;;;1.83;;
10150;SDS011;5116;52.318;4.644;2023-03-17T02:13:40;2.60;;;1.70;;
10150;SDS011;5116;52.318;4.644;2023-03-17T02:16:13;1.80;;;1.70;;
10150;SDS011;5116;52.318;4.644;2023-03-17T02:18:41;1.90;;;1.70;;
10150;SDS011;5116;52.318;4.644;2023-03-17T02:21:27;1.70;;;1.60;;
10150;SDS011;5116;52.318;4.644;2023-03-17T02:23:57;2.07;;;1.80;;
10150;SDS011;5116;52.318;4.644;2023-03-17T02:26:27;2.10;;;1.93;;
10150;SDS011;5116;52.318;4.644;2023-03-17T02:28:54;1.63;;;1.53;;
10150;SDS011;5116;52.318;4.644;2023-03-17T02:31:23;1.87;;;1.53;;
10150;SDS011;5116;52.318;4.644;2023-03-17T02:33:51;1.60;;;1.50;;
10150;SDS011;5116;52.318;4.644;2023-03-17T02:36:19;2.50;;;2.00;;
10150;SDS011;5116;52.318;4.644;2023-03-17T02:38:47;2.03;;;1.57;;
10150;SDS011;5116;52.318;4.644;2023-03-17T02:41:15;3.30;;;2.30;;
10150;SDS011;5116;52.318;4.644;2023-03-17T02:43:43;1.80;;;1.70;;
10150;SDS011;5116;52.318;4.644;2023-03-17T02:46:10;1.70;;;1.60;;
10150;SDS011;5116;52.318;4.644;2023-03-17T02:48:38;1.83;;;1.50;;
10150;SDS011;5116;52.318;4.644;2023-03-17T02:51:05;1.73;;;1.63;;
10150;SDS011;5116;52.318;4.644;2023-03-17T02:53:33;2.33;;;1.80;;
10150;SDS011;5116;52.318;4.644;2023-03-17T02:56:00;2.20;;;2.00;;
10150;SDS011;5116;52.318;4.644;2023-03-17T02:58:28;2.13;;;1.93;;
10150;SDS011;5116;52.318;4.644;2023-03-17T03:00:55;2.90;;;1.93;;
10150;SDS011;5116;52.318;4.644;2023-03-17T03:03:23;2.10;;;1.80;;
10150;SDS011;5116;52.318;4.644;2023-03-17T03:05:50;1.93;;;1.83;;
10150;SDS011;5116;52.318;4.644;2023-03-17T03:08:19;1.77;;;1.67;;
10150;SDS011;5116;52.318;4.644;2023-03-17T03:10:47;2.67;;;2.30;;
10150;SDS011;5116;52.318;4.644;2023-03-17T03:13:14;2.20;;;1.93;;
10150;SDS011;5116;52.318;4.644;2023-03-17T03:15:42;2.03;;;1.83;;
10150;SDS011;5116;52.318;4.644;2023-03-17T03:18:10;1.70;;;1.60;;
10150;SDS011;5116;52.318;4.644;2023-03-17T03:20:40;2.00;;;1.80;;
10150;SDS011;5116;52.318;4.644;2023-03-17T03:23:08;2.27;;;1.80;;
10150;SDS011;5116;52.318;4.644;2023-03-17T03:25:35;2.40;;;2.10;;
10150;SDS011;5116;52.318;4.644;2023-03-17T03:28:04;2.33;;;2.03;;
10150;SDS011;5116;52.318;4.644;2023-03-17T03:30:31;2.13;;;2.00;;
10150;SDS011;5116;52.318;4.644;2023-03-17T03:32:59;2.47;;;2.10;;
10150;SDS011;5116;52.318;4.644;2023-03-17T03:35:27;1.97;;;1.87;;
10150;SDS011;5116;52.318;4.644;2023-03-17T03:37:55;1.50;;;1.40;;
10150;SDS011;5116;52.318;4.644;2023-03-17T03:40:22;2.10;;;1.90;;
10150;SDS011;5116;52.318;4.644;2023-03-17T03:42:50;1.80;;;1.70;;
10150;SDS011;5116;52.318;4.644;2023-03-17T03:45:17;1.87;;;1.73;;
10150;SDS011;5116;52.318;4.644;2023-03-17T03:47:45;2.00;;;1.80;;
10150;SDS011;5116;52.318;4.644;2023-03-17T03:50:12;1.90;;;1.80;;
10150;SDS011;5116;52.318;4.644;2023-03-17T03:52:40;2.13;;;1.80;;
10150;SDS011;5116;52.318;4.644;2023-03-17T03:55:07;2.23;;;2.03;;
10150;SDS011;5116;52.318;4.644;2023-03-17T03:57:35;4.60;;;2.23;;
10150;SDS011;5116;52.318;4.644;2023-03-17T04:00:03;1.73;;;1.63;;
10150;SDS011;5116;52.318;4.644;2023-03-17T04:02:37;1.87;;;1.67;;
10150;SDS011;5116;52.318;4.644;2023-03-17T04:05:04;3.27;;;1.90;;
10150;SDS011;5116;52.318;4.644;2023-03-17T04:07:33;2.37;;;2.13;;
10150;SDS011;5116;52.318;4.644;2023-03-17T04:10:00;1.80;;;1.70;;
10150;SDS011;5116;52.318;4.644;2023-03-17T04:12:27;2.10;;;1.90;;
10150;SDS011;5116;52.318;4.644;2023-03-17T04:14:55;1.70;;;1.60;;
10150;SDS011;5116;52.318;4.644;2023-03-17T04:17:22;2.00;;;1.80;;
10150;SDS011;5116;52.318;4.644;2023-03-17T04:19:49;1.70;;;1.50;;
10150;SDS011;5116;52.318;4.644;2023-03-17T04:22:17;3.07;;;2.00;;
10150;SDS011;5116;52.318;4.644;2023-03-17T04:24:44;3.10;;;1.90;;
10150;SDS011;5116;52.318;4.644;2023-03-17T04:27:12;3.10;;;2.07;;
10150;SDS011;5116;52.318;4.644;2023-03-17T04:29:40;2.73;;;2.00;;
10150;SDS011;5116;52.318;4.644;2023-03-17T04:32:12;2.20;;;2.00;;
10150;SDS011;5116;52.318;4.644;2023-03-17T04:34:40;1.87;;;1.60;;
10150;SDS011;5116;52.318;4.644;2023-03-17T04:37:11;3.03;;;2.20;;
10150;SDS011;5116;52.318;4.644;2023-03-17T04:39:38;3.07;;;2.17;;
10150;SDS011;5116;52.318;4.644;2023-03-17T04:42:06;1.93;;;1.63;;
10150;SDS011;5116;52.318;4.644;2023-03-17T04:44:33;2.00;;;1.73;;
10150;SDS011;5116;52.318;4.644;2023-03-17T04:47:01;2.00;;;1.80;;
10150;SDS011;5116;52.318;4.644;2023-03-17T04:49:28;1.63;;;1.53;;
10150;SDS011;5116;52.318;4.644;2023-03-17T04:51:55;1.93;;;1.77;;
10150;SDS011;5116;52.318;4.644;2023-03-17T04:54:23;1.93;;;1.70;;
10150;SDS011;5116;52.318;4.644;2023-03-17T04:56:50;4.57;;;1.93;;
10150;SDS011;5116;52.318;4.644;2023-03-17T04:59:18;1.83;;;1.73;;
10150;SDS011;5116;52.318;4.644;2023-03-17T05:01:45;2.00;;;1.80;;
10150;SDS011;5116;52.318;4.644;2023-03-17T05:04:13;1.60;;;1.50;;
10150;SDS011;5116;52.318;4.644;2023-03-17T05:06:56;2.57;;;1.80;;
10150;SDS011;5116;52.318;4.644;2023-03-17T05:09:24;3.10;;;2.30;;
10150;SDS011;5116;52.318;4.644;2023-03-17T05:11:55;1.67;;;1.57;;
10150;SDS011;5116;52.318;4.644;2023-03-17T05:14:22;1.57;;;1.47;;
10150;SDS011;5116;52.318;4.644;2023-03-17T05:16:50;2.43;;;1.87;;
10150;SDS011;5116;52.318;4.644;2023-03-17T05:19:17;1.60;;;1.50;;
10150;SDS011;5116;52.318;4.644;2023-03-17T05:21:45;2.00;;;1.80;;
10150;SDS011;5116;52.318;4.644;2023-03-17T05:24:13;2.63;;;1.87;;
10150;SDS011;5116;52.318;4.644;2023-03-17T05:26:40;1.90;;;1.80;;
10150;SDS011;5116;52.318;4.644;2023-03-17T05:29:08;2.60;;;2.00;;
10150;SDS011;5116;52.318;4.644;2023-03-17T05:31:35;1.97;;;1.87;;
10150;SDS011;5116;52.318;4.644;2023-03-17T05:34:03;2.43;;;1.93;;
10150;SDS011;5116;52.318;4.644;2023-03-17T05:36:31;1.80;;;1.70;;
10150;SDS011;5116;52.318;4.644;2023-03-17T05:38:58;1.80;;;1.60;;
10150;SDS011;5116;52.318;4.644;2023-03-17T05:41:26;2.30;;;1.80;;
10150;SDS011;5116;52.318;4.644;2023-03-17T05:43:54;2.10;;;1.87;;
10150;SDS011;5116;52.318;4.644;2023-03-17T05:46:22;2.20;;;2.00;;
10150;SDS011;5116;52.318;4.644;2023-03-17T05:48:49;1.87;;;1.63;;
10150;SDS011;5116;52.318;4.644;2023-03-17T05:51:17;1.50;;;1.40;;
10150;SDS011;5116;52.318;4.644;2023-03-17T05:53:44;1.83;;;1.70;;
10150;SDS011;5116;52.318;4.644;2023-03-17T05:56:12;2.40;;;1.97;;
10150;SDS011;5116;52.318;4.644;2023-03-17T05:58:39;2.20;;;2.00;;
10150;SDS011;5116;52.318;4.644;2023-03-17T06:01:09;3.80;;;2.00;;
10150;SDS011;5116;52.318;4.644;2023-03-17T06:03:36;1.87;;;1.77;;
10150;SDS011;5116;52.318;4.644;2023-03-17T06:06:04;1.87;;;1.57;;
10150;SDS011;5116;52.318;4.644;2023-03-17T06:08:32;2.33;;;1.87;;
10150;SDS011;5116;52.318;4.644;2023-03-17T06:10:59;2.57;;;2.20;;
10150;SDS011;5116;52.318;4.644;2023-03-17T06:13:27;1.97;;;1.73;;
10150;SDS011;5116;52.318;4.644;2023-03-17T06:15:54;2.57;;;2.37;;
10150;SDS011;5116;52.318;4.644;2023-03-17T06:18:22;2.17;;;1.73;;
10150;SDS011;5116;52.318;4.644;2023-03-17T06:20:50;2.30;;;1.97;;
10150;SDS011;5116;52.318;4.644;2023-03-17T06:23:17;2.07;;;1.90;;
10150;SDS011;5116;52.318;4.644;2023-03-17T06:25:45;1.87;;;1.77;;
10150;SDS011;5116;52.318;4.644;2023-03-17T06:28:13;2.37;;;1.90;;
10150;SDS011;5116;52.318;4.644;2023-03-17T06:30:40;2.30;;;1.93;;
10150;SDS011;5116;52.318;4.644;2023-03-17T06:33:08;1.83;;;1.70;;
10150;SDS011;5116;52.318;4.644;2023-03-17T06:35:35;2.00;;;1.80;;
10150;SDS011;5116;52.318;4.644;2023-03-17T06:38:03;2.13;;;1.93;;
10150;SDS011;5116;52.318;4.644;2023-03-17T06:40:31;2.70;;;2.30;;
10150;SDS011;5116;52.318;4.644;2023-03-17T06:42:59;1.70;;;1.60;;
10150;SDS011;5116;52.318;4.644;2023-03-17T06:45:26;2.00;;;1.80;;
10150;SDS011;5116;52.318;4.644;2023-03-17T06:47:54;2.30;;;2.10;;
10150;SDS011;5116;52.318;4.644;2023-03-17T06:50:22;2.33;;;2.13;;
10150;SDS011;5116;52.318;4.644;2023-03-17T06:52:50;4.60;;;2.70;;
10150;SDS011;5116;52.318;4.644;2023-03-17T06:55:17;1.97;;;1.77;;
10150;SDS011;5116;52.318;4.644;2023-03-17T06:57:46;2.00;;;1.90;;
10150;SDS011;5116;52.318;4.644;2023-03-17T07:00:17;2.00;;;1.63;;
10150;SDS011;5116;52.318;4.644;2023-03-17T07:02:45;2.37;;;2.10;;
10150;SDS011;5116;52.318;4.644;2023-03-17T07:05:12;1.90;;;1.80;;
10150;SDS011;5116;52.318;4.644;2023-03-17T07:07:40;1.80;;;1.70;;
10150;SDS011;5116;52.318;4.644;2023-03-17T07:10:08;1.80;;;1.70;;
10150;SDS011;5116;52.318;4.644;2023-03-17T07:12:36;2.00;;;1.80;;
10150;SDS011;5116;52.318;4.644;2023-03-17T07:15:03;2.23;;;2.03;;
10150;SDS011;5116;52.318;4.644;2023-03-17T07:17:31;2.03;;;1.70;;
10150;SDS011;5116;52.318;4.644;2023-03-17T07:19:59;1.80;;;1.70;;
10150;SDS011;5116;52.318;4.644;2023-03-17T07:22:26;2.47;;;1.90;;
10150;SDS011;5116;52.318;4.644;2023-03-17T07:24:53;3.43;;;2.13;;
10150;SDS011;5116;52.318;4.644;2023-03-17T07:27:21;2.00;;;1.80;;
10150;SDS011;5116;52.318;4.644;2023-03-17T07:29:51;1.80;;;1.70;;
10150;SDS011;5116;52.318;4.644;2023-03-17T07:32:19;2.67;;;2.10;;
10150;SDS011;5116;52.318;4.644;2023-03-17T07:34:46;3.13;;;2.00;;
10150;SDS011;5116;52.318;4.644;2023-03-17T07:37:14;2.17;;;2.00;;
10150;SDS011;5116;52.318;4.644;2023-03-17T07:39:45;2.30;;;2.10;;
10150;SDS011;5116;52.318;4.644;2023-03-17T07:42:14;3.70;;;2.27;;
10150;SDS011;5116;52.318;4.644;2023-03-17T07:44:43;2.43;;;2.23;;
10150;SDS011;5116;52.318;4.644;2023-03-17T07:47:10;2.27;;;2.00;;
10150;SDS011;5116;52.318;4.644;2023-03-17T07:49:38;2.13;;;1.90;;
10150;SDS011;5116;52.318;4.644;2023-03-17T07:52:08;3.60;;;2.03;;
10150;SDS011;5116;52.318;4.644;2023-03-17T07:54:36;2.80;;;2.10;;
10150;SDS011;5116;52.318;4.644;2023-03-17T07:57:08;2.80;;;2.00;;
10150;SDS011;5116;52.318;4.644;2023-03-17T07:59:35;2.10;;;1.90;;
10150;SDS011;5116;52.318;4.644;2023-03-17T08:02:03;4.40;;;2.30;;
10150;SDS011;5116;52.318;4.644;2023-03-17T08:04:31;1.97;;;1.80;;
10150;SDS011;5116;52.318;4.644;2023-03-17T08:06:58;1.90;;;1.80;;
10150;SDS011;5116;52.318;4.644;2023-03-17T08:09:26;4.23;;;2.03;;
10150;SDS011;5116;52.318;4.644;2023-03-17T08:11:56;2.10;;;1.90;;
10150;SDS011;5116;52.318;4.644;2023-03-17T08:14:24;2.40;;;2.03;;
10150;SDS011;5116;52.318;4.644;2023-03-17T08:16:51;3.40;;;2.23;;
10150;SDS011;5116;52.318;4.644;2023-03-17T08:19:19;3.97;;;2.40;;
10150;SDS011;5116;52.318;4.644;2023-03-17T08:21:47;2.63;;;2.20;;
10150;SDS011;5116;52.318;4.644;2023-03-17T08:24:15;2.43;;;2.10;;
10150;SDS011;5116;52.318;4.644;2023-03-17T08:26:42;2.23;;;1.90;;
10150;SDS011;5116;52.318;4.644;2023-03-17T08:29:13;2.30;;;2.00;;
10150;SDS011;5116;52.318;4.644;2023-03-17T08:31:41;4.70;;;2.10;;
10150;SDS011;5116;52.318;4.644;2023-03-17T08:34:12;2.87;;;2.13;;
10150;SDS011;5116;52.318;4.644;2023-03-17T08:36:39;2.27;;;1.83;;
10150;SDS011;5116;52.318;4.644;2023-03-17T08:39:07;2.30;;;1.90;;
10150;SDS011;5116;52.318;4.644;2023-03-17T08:41:36;2.70;;;2.10;;
10150;SDS011;5116;52.318;4.644;2023-03-17T08:44:05;2.30;;;2.10;;
10150;SDS011;5116;52.318;4.644;2023-03-17T08:46:34;2.37;;;2.17;;
10150;SDS011;5116;52.318;4.644;2023-03-17T08:49:02;2.23;;;2.03;;
10150;SDS011;5116;52.318;4.644;2023-03-17T08:51:32;4.17;;;2.23;;
10150;SDS011;5116;52.318;4.644;2023-03-17T08:54:00;2.87;;;2.20;;
10150;SDS011;5116;52.318;4.644;2023-03-17T08:56:30;2.50;;;2.30;;
10150;SDS011;5116;52.318;4.644;2023-03-17T08:58:58;2.03;;;1.90;;
10150;SDS011;5116;52.318;4.644;2023-03-17T09:01:26;2.27;;;2.07;;
10150;SDS011;5116;52.318;4.644;2023-03-17T09:03:56;2.80;;;2.30;;
10150;SDS011;5116;52.318;4.644;2023-03-17T09:06:23;2.30;;;2.10;;
10150;SDS011;5116;52.318;4.644;2023-03-17T09:08:51;2.20;;;2.07;;
10150;SDS011;5116;52.318;4.644;2023-03-17T09:11:23;2.83;;;2.57;;
10150;SDS011;5116;52.318;4.644;2023-03-17T09:13:51;2.63;;;2.43;;
10150;SDS011;5116;52.318;4.644;2023-03-17T09:16:20;4.57;;;2.80;;
10150;SDS011;5116;52.318;4.644;2023-03-17T09:18:49;3.10;;;2.80;;
10150;SDS011;5116;52.318;4.644;2023-03-17T09:21:17;3.87;;;2.80;;
10150;SDS011;5116;52.318;4.644;2023-03-17T09:23:45;3.13;;;2.53;;
10150;SDS011;5116;52.318;4.644;2023-03-17T09:26:15;3.40;;;2.50;;
10150;SDS011;5116;52.318;4.644;2023-03-17T09:28:43;3.93;;;2.80;;
10150;SDS011;5116;52.318;4.644;2023-03-17T09:31:10;3.17;;;2.50;;
10150;SDS011;5116;52.318;4.644;2023-03-17T09:33:38;3.00;;;2.53;;
10150;SDS011;5116;52.318;4.644;2023-03-17T09:36:07;2.63;;;2.37;;
10150;SDS011;5116;52.318;4.644;2023-03-17T09:38:35;2.93;;;2.57;;
10150;SDS011;5116;52.318;4.644;2023-03-17T09:49:11;3.87;;;2.83;;
10150;SDS011;5116;52.318;4.644;2023-03-17T09:51:39;3.27;;;2.40;;
10150;SDS011;5116;52.318;4.644;2023-03-17T09:54:11;3.53;;;2.70;;
10150;SDS011;5116;52.318;4.644;2023-03-17T09:56:41;3.60;;;2.73;;
10150;SDS011;5116;52.318;4.644;2023-03-17T10:01:56;3.27;;;2.97;;
10150;SDS011;5116;52.318;4.644;2023-03-17T10:04:24;3.50;;;3.20;;
10150;SDS011;5116;52.318;4.644;2023-03-17T10:06:51;3.43;;;3.13;;
10150;SDS011;5116;52.318;4.644;2023-03-17T10:09:24;3.97;;;3.47;;
10150;SDS011;5116;52.318;4.644;2023-03-17T10:12:01;4.90;;;3.83;;
10150;SDS011;5116;52.318;4.644;2023-03-17T10:14:38;4.10;;;3.13;;
10150;SDS011;5116;52.318;4.644;2023-03-17T10:24:43;4.93;;;3.23;;
10150;SDS011;5116;52.318;4.644;2023-03-17T10:27:13;4.50;;;3.27;;
10150;SDS011;5116;52.318;4.644;2023-03-17T10:29:41;3.20;;;2.90;;
10150;SDS011;5116;52.318;4.644;2023-03-17T10:32:09;5.17;;;3.70;;
10150;SDS011;5116;52.318;4.644;2023-03-17T10:34:38;3.00;;;2.57;;
10150;SDS011;5116;52.318;4.644;2023-03-17T10:37:08;3.60;;;2.83;;
10150;SDS011;5116;52.318;4.644;2023-03-17T10:39:43;3.10;;;2.80;;
10150;SDS011;5116;52.318;4.644;2023-03-17T10:42:32;3.27;;;2.97;;
10150;SDS011;5116;52.318;4.644;2023-03-17T10:47:53;3.43;;;2.97;;
10150;SDS011;5116;52.318;4.644;2023-03-17T10:53:16;5.70;;;3.53;;
10150;SDS011;5116;52.318;4.644;2023-03-17T10:55:47;5.67;;;3.07;;
10150;SDS011;5116;52.318;4.644;2023-03-17T10:58:20;4.40;;;3.10;;
10150;SDS011;5116;52.318;4.644;2023-03-17T11:01:01;5.33;;;3.47;;
10150;SDS011;5116;52.318;4.644;2023-03-17T11:03:35;3.80;;;3.10;;
10150;SDS011;5116;52.318;4.644;2023-03-17T11:06:05;3.63;;;2.90;;
10150;SDS011;5116;52.318;4.644;2023-03-17T11:11:08;6.07;;;3.63;;
10150;SDS011;5116;52.318;4.644;2023-03-17T11:13:36;3.50;;;3.03;;
10150;SDS011;5116;52.318;4.644;2023-03-17T11:18:36;3.10;;;2.83;;
10150;SDS011;5116;52.318;4.644;2023-03-17T11:21:10;3.97;;;3.67;;
10150;SDS011;5116;52.318;4.644;2023-03-17T11:23:51;5.33;;;3.30;;
10150;SDS011;5116;52.318;4.644;2023-03-17T11:29:03;4.60;;;3.10;;
10150;SDS011;5116;52.318;4.644;2023-03-17T11:31:39;3.70;;;3.10;;
10150;SDS011;5116;52.318;4.644;2023-03-17T11:34:22;3.27;;;2.93;;
10150;SDS011;5116;52.318;4.644;2023-03-17T11:44:57;3.57;;;2.90;;
10150;SDS011;5116;52.318;4.644;2023-03-17T11:53:20;3.00;;;2.70;;
10150;SDS011;5116;52.318;4.644;2023-03-17T11:55:42;3.40;;;3.07;;
10150;SDS011;5116;52.318;4.644;2023-03-17T12:00:58;3.40;;;3.10;;
10150;SDS011;5116;52.318;4.644;2023-03-17T12:04:11;4.77;;;3.37;;
10150;SDS011;5116;52.318;4.644;2023-03-17T12:06:25;4.30;;;3.10;;
10150;SDS011;5116;52.318;4.644;2023-03-17T12:08:58;4.80;;;3.30;;
10150;SDS011;5116;52.318;4.644;2023-03-17T12:11:30;5.80;;;3.30;;
10150;SDS011;5116;52.318;4.644;2023-03-17T12:14:00;4.83;;;3.57;;
10150;SDS011;5116;52.318;4.644;2023-03-17T12:16:30;4.30;;;3.90;;
10150;SDS011;5116;52.318;4.644;2023-03-17T12:21:37;5.13;;;4.20;;
10150;SDS011;5116;52.318;4.644;2023-03-17T12:24:14;5.03;;;3.50;;
10150;SDS011;5116;52.318;4.644;2023-03-17T12:29:24;3.67;;;3.37;;
10150;SDS011;5116;52.318;4.644;2023-03-17T12:31:53;4.70;;;3.83;;
10150;SDS011;5116;52.318;4.644;2023-03-17T12:34:25;4.10;;;3.70;;
10150;SDS011;5116;52.318;4.644;2023-03-17T12:36:54;3.53;;;3.00;;
10150;SDS011;5116;52.318;4.644;2023-03-17T12:52:23;4.03;;;3.53;;
10150;SDS011;5116;52.318;4.644;2023-03-17T12:54:52;4.67;;;3.33;;
10150;SDS011;5116;52.318;4.644;2023-03-17T12:57:20;3.73;;;3.00;;
10150;SDS011;5116;52.318;4.644;2023-03-17T12:59:55;3.80;;;2.80;;
10150;SDS011;5116;52.318;4.644;2023-03-17T13:04:52;3.43;;;3.13;;
10150;SDS011;5116;52.318;4.644;2023-03-17T13:07:29;4.17;;;2.60;;
10150;SDS011;5116;52.318;4.644;2023-03-17T13:12:49;4.23;;;3.37;;
10150;SDS011;5116;52.318;4.644;2023-03-17T13:20:43;3.17;;;2.67;;
10150;SDS011;5116;52.318;4.644;2023-03-17T13:23:12;4.70;;;3.27;;
10150;SDS011;5116;52.318;4.644;2023-03-17T13:30:42;4.73;;;3.23;;
10150;SDS011;5116;52.318;4.644;2023-03-17T13:46:18;7.10;;;2.97;;
10150;SDS011;5116;52.318;4.644;2023-03-17T13:48:47;3.97;;;3.17;;
10150;SDS011;5116;52.318;4.644;2023-03-17T13:51:20;5.03;;;3.23;;
10150;SDS011;5116;52.318;4.644;2023-03-17T13:53:53;6.10;;;3.50;;
10150;SDS011;5116;52.318;4.644;2023-03-17T13:59:17;4.90;;;3.50;;
10150;SDS011;5116;52.318;4.644;2023-03-17T14:01:58;4.57;;;3.63;;
10150;SDS011;5116;52.318;4.644;2023-03-17T14:05:03;3.73;;;3.13;;
10150;SDS011;5116;52.318;4.644;2023-03-17T14:07:22;3.90;;;3.13;;
10150;SDS011;5116;52.318;4.644;2023-03-17T14:10:00;3.83;;;2.80;;
10150;SDS011;5116;52.318;4.644;2023-03-17T14:12:41;4.90;;;3.50;;
10150;SDS011;5116;52.318;4.644;2023-03-17T14:15:20;3.50;;;2.93;;
10150;SDS011;5116;52.318;4.644;2023-03-17T14:18:13;5.03;;;3.30;;
10150;SDS011;5116;52.318;4.644;2023-03-17T14:20:51;3.60;;;3.30;;
10150;SDS011;5116;52.318;4.644;2023-03-17T14:23:19;3.80;;;3.00;;
10150;SDS011;5116;52.318;4.644;2023-03-17T14:25:47;3.17;;;2.87;;
10150;SDS011;5116;52.318;4.644;2023-03-17T14:28:16;3.43;;;3.10;;
10150;SDS011;5116;52.318;4.644;2023-03-17T14:30:52;3.63;;;3.13;;
10150;SDS011;5116;52.318;4.644;2023-03-17T14:33:27;4.03;;;3.40;;
10150;SDS011;5116;52.318;4.644;2023-03-17T14:35:57;3.53;;;3.13;;
10150;SDS011;5116;52.318;4.644;2023-03-17T14:38:26;5.27;;;3.40;;
10150;SDS011;5116;52.318;4.644;2023-03-17T14:43:40;4.43;;;3.13;;
10150;SDS011;5116;52.318;4.644;2023-03-17T14:46:15;3.30;;;2.83;;
10150;SDS011;5116;52.318;4.644;2023-03-17T14:48:45;3.87;;;2.63;;
10150;SDS011;5116;52.318;4.644;2023-03-17T14:51:30;3.83;;;3.40;;
10150;SDS011;5116;52.318;4.644;2023-03-17T14:53:59;3.10;;;2.63;;
10150;SDS011;5116;52.318;4.644;2023-03-17T14:56:32;4.97;;;3.43;;
10150;SDS011;5116;52.318;4.644;2023-03-17T14:59:15;4.83;;;3.33;;
10150;SDS011;5116;52.318;4.644;2023-03-17T15:01:44;3.63;;;2.80;;
10150;SDS011;5116;52.318;4.644;2023-03-17T15:04:19;4.43;;;3.30;;
10150;SDS011;5116;52.318;4.644;2023-03-17T15:06:49;3.07;;;2.77;;
10150;SDS011;5116;52.318;4.644;2023-03-17T15:09:18;3.70;;;2.67;;
10150;SDS011;5116;52.318;4.644;2023-03-17T15:11:45;3.77;;;2.67;;
10150;SDS011;5116;52.318;4.644;2023-03-17T15:14:26;3.83;;;2.73;;
10150;SDS011;5116;52.318;4.644;2023-03-17T15:16:55;2.83;;;2.63;;
10150;SDS011;5116;52.318;4.644;2023-03-17T15:21:54;5.23;;;2.60;;
10150;SDS011;5116;52.318;4.644;2023-03-17T15:27:03;3.93;;;2.93;;
10150;SDS011;5116;52.318;4.644;2023-03-17T15:29:31;3.40;;;3.10;;
10150;SDS011;5116;52.318;4.644;2023-03-17T15:32:00;2.77;;;2.40;;
10150;SDS011;5116;52.318;4.644;2023-03-17T15:34:29;4.23;;;3.17;;
10150;SDS011;5116;52.318;4.644;2023-03-17T15:36:56;4.40;;;3.10;;
10150;SDS011;5116;52.318;4.644;2023-03-17T15:39:27;5.23;;;2.83;;
10150;SDS011;5116;52.318;4.644;2023-03-17T15:41:54;4.07;;;3.27;;
10150;SDS011;5116;52.318;4.644;2023-03-17T15:44:24;3.17;;;2.40;;
10150;SDS011;5116;52.318;4.644;2023-03-17T15:46:51;3.33;;;3.03;;
10150;SDS011;5116;52.318;4.644;2023-03-17T15:49:19;3.67;;;2.80;;
10150;SDS011;5116;52.318;4.644;2023-03-17T15:51:51;3.30;;;2.50;;
10150;SDS011;5116;52.318;4.644;2023-03-17T15:54:20;4.67;;;2.80;;
10150;SDS011;5116;52.318;4.644;2023-03-17T15:56:48;4.10;;;2.93;;
10150;SDS011;5116;52.318;4.644;2023-03-17T15:59:15;3.47;;;2.70;;
10150;SDS011;5116;52.318;4.644;2023-03-17T16:01:43;3.70;;;2.83;;
10150;SDS011;5116;52.318;4.644;2023-03-17T16:04:11;5.33;;;3.23;;
10150;SDS011;5116;52.318;4.644;2023-03-17T16:06:39;3.37;;;3.00;;
10150;SDS011;5116;52.318;4.644;2023-03-17T16:09:12;6.40;;;3.37;;
10150;SDS011;5116;52.318;4.644;2023-03-17T16:11:40;2.80;;;2.43;;
10150;SDS011;5116;52.318;4.644;2023-03-17T16:14:10;3.47;;;3.00;;
10150;SDS011;5116;52.318;4.644;2023-03-17T16:16:38;2.90;;;2.70;;
10150;SDS011;5116;52.318;4.644;2023-03-17T16:19:12;3.10;;;2.80;;
10150;SDS011;5116;52.318;4.644;2023-03-17T16:21:42;4.70;;;3.43;;
10150;SDS011;5116;52.318;4.644;2023-03-17T16:24:19;3.20;;;2.57;;
10150;SDS011;5116;52.318;4.644;2023-03-17T16:26:48;6.00;;;3.20;;
10150;SDS011;5116;52.318;4.644;2023-03-17T16:29:16;3.97;;;3.07;;
10150;SDS011;5116;52.318;4.644;2023-03-17T16:31:45;4.13;;;3.63;;
10150;SDS011;5116;52.318;4.644;2023-03-17T16:34:18;4.13;;;3.23;;
10150;SDS011;5116;52.318;4.644;2023-03-17T16:36:46;4.10;;;3.70;;
10150;SDS011;5116;52.318;4.644;2023-03-17T16:39:18;2.77;;;2.57;;
10150;SDS011;5116;52.318;4.644;2023-03-17T16:41:46;5.20;;;3.30;;
10150;SDS011;5116;52.318;4.644;2023-03-17T16:44:14;5.27;;;3.00;;
10150;SDS011;5116;52.318;4.644;2023-03-17T16:46:44;4.93;;;3.25;;
10150;SDS011;5116;52.318;4.644;2023-03-17T16:49:16;3.97;;;3.33;;
10150;SDS011;5116;52.318;4.644;2023-03-17T16:51:44;3.97;;;3.00;;
10150;SDS011;5116;52.318;4.644;2023-03-17T16:54:12;4.60;;;3.17;;
10150;SDS011;5116;52.318;4.644;2023-03-17T16:56:40;5.83;;;3.10;;
10150;SDS011;5116;52.318;4.644;2023-03-17T16:59:10;5.30;;;3.40;;
10150;SDS011;5116;52.318;4.644;2023-03-17T17:01:40;5.07;;;3.77;;
10150;SDS011;5116;52.318;4.644;2023-03-17T17:04:08;3.77;;;3.47;;